createdAt,value
2022-11-12T00:00:46.791Z,102421.50
2022-11-12T00:03:13.169Z,102414.75
2022-11-12T00:05:39.552Z,102414.00
2022-11-12T00:08:05.978Z,102421.22
2022-11-12T00:10:32.375Z,102429.56
2022-11-12T00:12:59.338Z,102424.13
2022-11-12T00:15:26.349Z,102438.69
2022-11-12T00:17:53.195Z,102437.78
2022-11-12T00:20:19.598Z,102432.16
2022-11-12T00:22:45.999Z,102438.16
2022-11-12T00:25:12.385Z,102428.88
2022-11-12T00:27:38.791Z,102435.69
2022-11-12T00:30:05.825Z,102434.47
2022-11-12T00:32:32.238Z,102437.16
2022-11-12T00:35:02.418Z,102436.22
2022-11-12T00:37:29.347Z,102441.66
2022-11-12T00:39:55.708Z,102452.16
2022-11-12T00:42:22.073Z,102454.06
2022-11-12T00:44:49.823Z,102446.88
2022-11-12T00:47:16.635Z,102456.22
2022-11-12T00:49:43.163Z,102455.63
2022-11-12T00:52:09.565Z,102461.69
2022-11-12T00:54:35.926Z,102461.44
2022-11-12T00:57:02.298Z,102453.31
2022-11-12T00:59:28.756Z,102456.94
2022-11-12T01:01:55.157Z,102464.97
2022-11-12T01:04:21.522Z,102458.38
2022-11-12T01:06:47.912Z,102460.00
2022-11-12T01:09:14.313Z,102474.44
2022-11-12T01:11:41.498Z,102466.91
2022-11-12T01:14:09.131Z,102461.63
2022-11-12T01:16:37.874Z,102459.53
2022-11-12T01:19:06.214Z,102469.41
2022-11-12T01:21:33.705Z,102460.72
2022-11-12T01:24:01.338Z,102453.06
2022-11-12T01:26:31.088Z,102458.13
2022-11-12T01:28:57.675Z,102463.78
2022-11-12T01:31:30.189Z,102458.63
2022-11-12T01:33:58.566Z,102465.84
2022-11-12T01:36:26.584Z,102467.50
2022-11-12T01:38:53.964Z,102467.13
2022-11-12T01:41:25.676Z,102465.22
2022-11-12T01:44:12.492Z,102466.06
2022-11-12T01:47:06.155Z,102467.69
2022-11-12T01:49:41.935Z,102462.84
2022-11-12T01:52:34.766Z,102465.31
2022-11-12T01:55:08.274Z,102471.16
2022-11-12T01:57:39.549Z,102471.66
2022-11-12T02:00:10.062Z,102471.28
2022-11-12T02:02:36.954Z,102474.56
2022-11-12T02:05:06.736Z,102475.00
2022-11-12T02:07:34.450Z,102471.44
2022-11-12T02:10:02.273Z,102468.69
2022-11-12T02:12:47.307Z,102460.75
2022-11-12T02:15:13.979Z,102457.88
2022-11-12T02:17:40.343Z,102458.06
2022-11-12T02:20:10.694Z,102450.91
2022-11-12T02:22:37.082Z,102458.06
2022-11-12T02:25:03.815Z,102458.06
2022-11-12T02:27:30.256Z,102458.69
2022-11-12T02:29:56.721Z,102449.09
2022-11-12T02:32:23.091Z,102447.25
2022-11-12T02:34:49.455Z,102441.59
2022-11-12T02:37:15.814Z,102435.88
2022-11-12T02:39:42.185Z,102443.63
2022-11-12T02:42:08.554Z,102446.28
2022-11-12T02:44:34.991Z,102450.47
2022-11-12T02:47:01.392Z,102444.53
2022-11-12T02:49:27.797Z,102457.25
2022-11-12T02:51:54.217Z,102453.06
2022-11-12T02:54:20.589Z,102448.25
2022-11-12T02:56:46.976Z,102447.34
2022-11-12T02:59:13.355Z,102446.09
2022-11-12T03:01:39.717Z,102445.63
2022-11-12T03:04:06.112Z,102456.19
2022-11-12T03:06:32.473Z,102456.31
2022-11-12T03:08:58.846Z,102453.81
2022-11-12T03:11:25.244Z,102439.63
2022-11-12T03:13:51.616Z,102445.53
2022-11-12T03:16:18.003Z,102448.91
2022-11-12T03:18:44.439Z,102452.25
2022-11-12T03:21:10.816Z,102455.63
2022-11-12T03:23:37.183Z,102446.28
2022-11-12T03:26:04.402Z,102443.78
2022-11-12T03:28:30.976Z,102451.59
2022-11-12T03:30:59.257Z,102453.44
2022-11-12T03:33:25.764Z,102446.47
2022-11-12T03:35:52.303Z,102449.22
2022-11-12T03:38:18.740Z,102448.09
2022-11-12T03:40:45.141Z,102443.22
2022-11-12T03:43:11.527Z,102442.25
2022-11-12T03:45:37.914Z,102437.16
2022-11-12T03:48:04.467Z,102433.47
2022-11-12T03:50:30.959Z,102430.59
2022-11-12T03:52:58.980Z,102429.75
2022-11-12T03:55:27.807Z,102427.44
2022-11-12T03:57:54.609Z,102426.31
2022-11-12T04:00:22.325Z,102424.41
2022-11-12T04:02:48.891Z,102414.88
2022-11-12T04:05:34.472Z,102418.63
2022-11-12T04:08:31.039Z,102412.31
2022-11-12T04:10:57.409Z,102418.78
2022-11-12T04:13:29.688Z,102416.06
2022-11-12T04:16:15.310Z,102411.41
2022-11-12T04:19:00.214Z,102415.16
2022-11-12T04:21:49.519Z,102409.63
2022-11-12T04:24:38.466Z,102405.41
2022-11-12T04:27:04.886Z,102407.41
2022-11-12T04:29:50.420Z,102408.63
2022-11-12T04:32:17.087Z,102407.84
2022-11-12T04:34:43.556Z,102404.84
2022-11-12T04:37:10.003Z,102397.28
2022-11-12T04:39:36.372Z,102398.72
2022-11-12T04:42:21.764Z,102395.63
2022-11-12T04:44:57.168Z,102399.09
2022-11-12T04:47:23.633Z,102400.44
2022-11-12T04:49:49.999Z,102395.59
2022-11-12T04:52:16.540Z,102398.38
2022-11-12T04:54:42.899Z,102398.53
2022-11-12T04:57:09.308Z,102396.78
2022-11-12T04:59:35.673Z,102399.72
2022-11-12T05:02:02.147Z,102390.72
2022-11-12T05:04:29.235Z,102390.28
2022-11-12T05:06:56.912Z,102388.66
2022-11-12T05:09:25.712Z,102381.16
2022-11-12T05:11:52.779Z,102388.06
2022-11-12T05:14:19.189Z,102385.66
2022-11-12T05:16:45.762Z,102385.91
2022-11-12T05:19:12.179Z,102384.13
2022-11-12T05:21:57.026Z,102392.19
2022-11-12T05:24:40.928Z,102386.13
2022-11-12T05:27:14.106Z,102383.25
2022-11-12T05:29:40.755Z,102380.75
2022-11-12T05:32:08.016Z,102378.25
2022-11-12T05:34:34.724Z,102381.84
2022-11-12T05:37:03.106Z,102383.34
2022-11-12T05:39:29.883Z,102379.31
2022-11-12T05:42:12.454Z,102381.44
2022-11-12T05:44:39.575Z,102381.19
2022-11-12T05:47:05.922Z,102384.63
2022-11-12T05:49:32.396Z,102378.63
2022-11-12T05:51:58.817Z,102374.53
2022-11-12T05:54:25.222Z,102375.03
2022-11-12T05:56:53.317Z,102372.81
2022-11-12T05:59:19.749Z,102383.28
2022-11-12T06:01:46.191Z,102375.97
2022-11-12T06:04:16.542Z,102377.97
2022-11-12T06:06:43.649Z,102374.19
2022-11-12T06:09:10.491Z,102374.00
2022-11-12T06:11:37.548Z,102379.13
2022-11-12T06:14:04.460Z,102382.84
2022-11-12T06:16:31.368Z,102385.63
2022-11-12T06:18:58.350Z,102381.75
2022-11-12T06:21:24.802Z,102387.47
2022-11-12T06:24:00.479Z,102389.31
2022-11-12T06:26:28.566Z,102389.44
2022-11-12T06:28:55.516Z,102387.53
2022-11-12T06:31:22.399Z,102389.44
2022-11-12T06:33:49.032Z,102391.25
2022-11-12T06:36:17.532Z,102389.31
2022-11-12T06:38:44.111Z,102398.00
2022-11-12T06:41:11.977Z,102400.38
2022-11-12T06:43:38.954Z,102394.34
2022-11-12T06:46:16.502Z,102389.56
2022-11-12T06:48:42.999Z,102392.81
2022-11-12T06:51:17.626Z,102391.38
2022-11-12T06:53:44.175Z,102388.84
2022-11-12T06:56:10.678Z,102396.22
2022-11-12T06:58:37.212Z,102399.16
2022-11-12T07:01:10.946Z,102399.03
2022-11-12T07:03:39.230Z,102409.56
2022-11-12T07:06:07.851Z,102402.94
2022-11-12T07:08:34.716Z,102413.75
2022-11-12T07:11:01.183Z,102413.22
2022-11-12T07:13:30.343Z,102411.88
2022-11-12T07:15:58.526Z,102416.59
2022-11-12T07:18:25.544Z,102420.13
2022-11-12T07:20:52.199Z,102420.19
2022-11-12T07:23:18.571Z,102414.06
2022-11-12T07:25:44.937Z,102414.69
2022-11-12T07:28:11.294Z,102416.94
2022-11-12T07:30:37.789Z,102422.69
2022-11-12T07:33:04.215Z,102415.47
2022-11-12T07:35:30.791Z,102416.84
2022-11-12T07:37:59.697Z,102420.38
2022-11-12T07:40:26.211Z,102425.47
2022-11-12T07:42:52.602Z,102429.94
2022-11-12T07:45:19.016Z,102433.03
2022-11-12T07:47:45.388Z,102431.91
2022-11-12T07:50:11.749Z,102430.59
2022-11-12T07:52:38.147Z,102435.13
2022-11-12T07:55:04.974Z,102440.81
2022-11-12T07:57:33.130Z,102435.97
2022-11-12T07:59:59.495Z,102433.31
2022-11-12T08:02:25.874Z,102435.56
2022-11-12T08:04:52.574Z,102434.09
2022-11-12T08:07:19.060Z,102437.78
2022-11-12T08:09:45.500Z,102433.31
2022-11-12T08:12:11.873Z,102440.69
2022-11-12T08:14:38.220Z,102438.63
2022-11-12T08:17:04.600Z,102437.25
2022-11-12T08:19:30.948Z,102430.72
2022-11-12T08:21:57.316Z,102430.56
2022-11-12T08:24:23.685Z,102434.75
2022-11-12T08:26:50.147Z,102428.53
2022-11-12T08:29:16.500Z,102437.03
2022-11-12T08:31:42.881Z,102441.50
2022-11-12T08:34:12.535Z,102435.72
2022-11-12T08:36:40.209Z,102428.78
2022-11-12T08:39:07.328Z,102434.63
2022-11-12T08:41:33.983Z,102424.00
2022-11-12T08:44:05.548Z,102426.97
2022-11-12T08:46:34.641Z,102427.03
2022-11-12T08:49:01.038Z,102420.22
2022-11-12T08:51:27.405Z,102426.28
2022-11-12T08:53:53.768Z,102415.31
2022-11-12T08:56:20.117Z,102413.44
2022-11-12T08:58:46.489Z,102414.94
2022-11-12T09:01:12.997Z,102415.13
2022-11-12T09:03:39.454Z,102420.97
2022-11-12T09:06:06.096Z,102408.63
2022-11-12T09:08:34.381Z,102409.69
2022-11-12T09:11:00.757Z,102404.84
2022-11-12T09:13:27.156Z,102418.41
2022-11-12T09:15:53.557Z,102407.72
2022-11-12T09:18:20.024Z,102403.47
2022-11-12T09:20:46.681Z,102407.34
2022-11-12T09:23:15.142Z,102398.22
2022-11-12T09:25:41.970Z,102399.28
2022-11-12T09:28:10.033Z,102405.75
2022-11-12T09:30:38.036Z,102403.78
2022-11-12T09:33:04.791Z,102405.06
2022-11-12T09:35:31.295Z,102411.13
2022-11-12T09:37:59.314Z,102416.06
2022-11-12T09:40:39.241Z,102415.28
2022-11-12T09:43:11.552Z,102404.53
2022-11-12T09:45:37.922Z,102409.75
2022-11-12T09:48:09.123Z,102415.63
2022-11-12T09:50:43.172Z,102411.41
2022-11-12T09:53:18.598Z,102417.47
2022-11-12T09:55:49.514Z,102412.66
2022-11-12T09:58:17.530Z,102405.84
2022-11-12T10:00:58.885Z,102411.41
2022-11-12T10:03:37.112Z,102412.84
2022-11-12T10:06:19.151Z,102415.84
2022-11-12T10:08:58.524Z,102410.50
2022-11-12T10:12:02.841Z,102411.09
2022-11-12T10:14:52.795Z,102403.09
2022-11-12T10:17:39.229Z,102399.81
2022-11-12T10:20:22.906Z,102395.63
2022-11-12T10:23:13.945Z,102395.88
2022-11-12T10:25:43.669Z,102386.66
2022-11-12T10:28:43.805Z,102392.91
2022-11-12T10:31:18.720Z,102388.94
2022-11-12T10:33:45.317Z,102393.56
2022-11-12T10:36:23.526Z,102382.59
2022-11-12T10:38:52.985Z,102382.56
2022-11-12T10:41:28.720Z,102392.31
2022-11-12T10:43:59.186Z,102398.72
2022-11-12T10:46:31.012Z,102395.44
2022-11-12T10:49:02.619Z,102392.13
2022-11-12T10:51:34.564Z,102388.78
2022-11-12T10:54:34.842Z,102393.06
2022-11-12T10:57:25.462Z,102380.88
2022-11-12T11:00:12.013Z,102384.53
2022-11-12T11:02:46.956Z,102372.78
2022-11-12T11:05:27.426Z,102368.97
2022-11-12T11:07:53.803Z,102377.41
2022-11-12T11:10:29.092Z,102376.81
2022-11-12T11:13:21.727Z,102363.03
2022-11-12T11:15:57.517Z,102360.44
2022-11-12T11:18:24.189Z,102360.13
2022-11-12T11:21:04.966Z,102363.00
2022-11-12T11:23:42.587Z,102354.16
2022-11-12T11:26:38.666Z,102348.50
2022-11-12T11:29:35.873Z,102344.53
2022-11-12T11:32:20.996Z,102346.00
2022-11-12T11:35:27.480Z,102342.91
2022-11-12T11:38:11.138Z,102337.69
2022-11-12T11:40:46.612Z,102337.97
2022-11-12T11:43:36.192Z,102329.28
2022-11-12T11:46:16.671Z,102324.69
2022-11-12T11:49:17.531Z,102323.53
2022-11-12T11:51:55.009Z,102326.84
2022-11-12T11:55:04.492Z,102326.38
2022-11-12T11:57:43.932Z,102317.53
2022-11-12T12:00:13.317Z,102324.56
2022-11-12T12:03:05.983Z,102317.81
2022-11-12T12:05:46.124Z,102321.56
2022-11-12T12:08:29.748Z,102317.97
2022-11-12T12:11:15.854Z,102314.75
2022-11-12T12:13:45.135Z,102310.31
2022-11-12T12:16:22.261Z,102303.88
2022-11-12T12:19:20.756Z,102307.50
2022-11-12T12:21:50.378Z,102308.50
2022-11-12T12:24:30.337Z,102306.81
2022-11-12T12:27:12.332Z,102304.84
2022-11-12T12:29:45.496Z,102300.69
2022-11-12T12:32:27.134Z,102298.69
2022-11-12T12:35:21.966Z,102291.56
2022-11-12T12:37:55.560Z,102290.53
2022-11-12T12:40:26.428Z,102287.81
2022-11-12T12:42:57.245Z,102287.94
2022-11-12T12:45:36.391Z,102282.16
2022-11-12T12:48:04.940Z,102278.09
2022-11-12T12:50:31.603Z,102277.69
2022-11-12T12:53:04.181Z,102274.31
2022-11-12T12:55:52.315Z,102273.81
2022-11-12T12:58:32.002Z,102275.78
2022-11-12T13:01:21.846Z,102269.97
2022-11-12T13:03:51.249Z,102267.13
2022-11-12T13:06:23.822Z,102270.25
2022-11-12T13:09:02.655Z,102261.91
2022-11-12T13:12:00.030Z,102267.41
2022-11-12T13:14:35.209Z,102264.22
2022-11-12T13:17:08.831Z,102265.69
2022-11-12T13:20:09.362Z,102270.13
2022-11-12T13:22:38.703Z,102272.09
2022-11-12T13:25:06.567Z,102271.16
2022-11-12T13:27:53.188Z,102261.53
2022-11-12T13:30:22.221Z,102269.91
2022-11-12T13:32:48.755Z,102260.50
2022-11-12T13:35:21.753Z,102264.44
2022-11-12T13:37:56.764Z,102258.69
2022-11-12T13:40:23.111Z,102263.75
2022-11-12T13:42:50.127Z,102262.84
2022-11-12T13:45:22.723Z,102261.69
2022-11-12T13:47:49.191Z,102251.78
2022-11-12T13:50:23.334Z,102257.13
2022-11-12T13:52:50.113Z,102258.94
2022-11-12T13:55:21.256Z,102258.50
2022-11-12T13:57:55.518Z,102259.66
2022-11-12T14:00:25.868Z,102257.25
2022-11-12T14:02:55.783Z,102265.72
2022-11-12T14:05:25.453Z,102266.38
2022-11-12T14:08:10.329Z,102260.53
2022-11-12T14:10:49.818Z,102263.25
2022-11-12T14:13:34.643Z,102251.53
2022-11-12T14:16:19.167Z,102255.03
2022-11-12T14:19:04.354Z,102253.22
2022-11-12T14:21:30.764Z,102250.38
2022-11-12T14:23:57.240Z,102254.00
2022-11-12T14:26:41.039Z,102246.19
2022-11-12T14:29:14.081Z,102250.88
2022-11-12T14:31:40.466Z,102251.53
2022-11-12T14:34:27.044Z,102247.91
2022-11-12T14:36:55.879Z,102246.44
2022-11-12T14:39:24.212Z,102241.44
2022-11-12T14:41:50.880Z,102241.22
2022-11-12T14:44:26.650Z,102233.97
2022-11-12T14:46:55.070Z,102228.63
2022-11-12T14:49:45.201Z,102234.22
2022-11-12T14:52:23.149Z,102237.84
2022-11-12T14:54:55.237Z,102234.59
2022-11-12T14:57:27.622Z,102234.22
2022-11-12T14:59:54.583Z,102232.50
2022-11-12T15:02:42.294Z,102218.28
2022-11-12T15:05:13.696Z,102224.41
2022-11-12T15:07:59.268Z,102226.59
2022-11-12T15:10:37.435Z,102231.13
2022-11-12T15:13:07.048Z,102220.16
2022-11-12T15:15:34.546Z,102223.41
2022-11-12T15:18:03.535Z,102223.59
2022-11-12T15:20:29.938Z,102216.41
2022-11-12T15:22:56.602Z,102214.56
2022-11-12T15:25:30.964Z,102214.00
2022-11-12T15:28:13.075Z,102212.84
2022-11-12T15:30:39.533Z,102212.00
2022-11-12T15:33:11.998Z,102213.22
2022-11-12T15:35:43.846Z,102206.34
2022-11-12T15:38:14.320Z,102205.06
2022-11-12T15:40:45.609Z,102203.59
2022-11-12T15:43:14.422Z,102200.94
2022-11-12T15:45:40.852Z,102205.56
2022-11-12T15:48:11.425Z,102198.81
2022-11-12T15:50:39.040Z,102195.94
2022-11-12T15:53:05.793Z,102204.66
2022-11-12T15:55:33.322Z,102205.84
2022-11-12T15:57:59.827Z,102207.53
2022-11-12T16:00:31.716Z,102202.34
2022-11-12T16:03:02.298Z,102214.56
2022-11-12T16:05:28.647Z,102200.88
2022-11-12T16:07:55.010Z,102205.16
2022-11-12T16:10:21.378Z,102210.97
2022-11-12T16:12:48.033Z,102216.06
2022-11-12T16:15:15.890Z,102214.88
2022-11-12T16:17:42.355Z,102211.69
2022-11-12T16:20:16.808Z,102208.38
2022-11-12T16:22:43.225Z,102200.81
2022-11-12T16:25:10.136Z,102203.25
2022-11-12T16:27:38.204Z,102208.44
2022-11-12T16:30:07.259Z,102208.88
2022-11-12T16:32:33.616Z,102207.38
2022-11-12T16:35:01.271Z,102207.84
2022-11-12T16:37:27.980Z,102205.09
2022-11-12T16:39:54.339Z,102198.38
2022-11-12T16:42:20.698Z,102197.78
2022-11-12T16:44:47.045Z,102195.34
2022-11-12T16:47:13.512Z,102195.78
2022-11-12T16:49:40.510Z,102195.34
2022-11-12T16:52:09.094Z,102200.97
2022-11-12T16:54:35.452Z,102198.19
2022-11-12T16:57:01.837Z,102197.09
2022-11-12T16:59:28.305Z,102198.00
2022-11-12T17:01:54.687Z,102193.91
2022-11-12T17:04:24.055Z,102187.19
2022-11-12T17:06:50.445Z,102190.69
2022-11-12T17:09:16.934Z,102190.03
2022-11-12T17:11:43.289Z,102191.34
2022-11-12T17:14:10.955Z,102191.03
2022-11-12T17:16:37.342Z,102187.47
2022-11-12T17:19:04.073Z,102187.41
2022-11-12T17:21:30.518Z,102189.84
2022-11-12T17:23:57.872Z,102196.97
2022-11-12T17:26:24.441Z,102189.41
2022-11-12T17:28:57.094Z,102191.88
2022-11-12T17:31:25.848Z,102191.97
2022-11-12T17:33:52.994Z,102194.53
2022-11-12T17:36:21.784Z,102194.09
2022-11-12T17:38:48.269Z,102197.31
2022-11-12T17:41:14.862Z,102194.19
2022-11-12T17:43:41.544Z,102189.03
2022-11-12T17:46:09.497Z,102189.75
2022-11-12T17:48:36.895Z,102191.16
2022-11-12T17:51:08.737Z,102187.78
2022-11-12T17:53:36.062Z,102186.69
2022-11-12T17:56:02.744Z,102191.31
2022-11-12T17:58:29.523Z,102177.97
2022-11-12T18:00:57.034Z,102178.91
2022-11-12T18:03:23.454Z,102184.22
2022-11-12T18:05:59.981Z,102181.28
2022-11-12T18:08:26.388Z,102173.97
2022-11-12T18:10:52.938Z,102174.75
2022-11-12T18:13:19.381Z,102177.50
2022-11-12T18:15:45.855Z,102171.50
2022-11-12T18:18:12.411Z,102174.38
2022-11-12T18:20:39.404Z,102173.19
2022-11-12T18:23:05.870Z,102172.69
2022-11-12T18:25:32.261Z,102170.09
2022-11-12T18:27:58.744Z,102165.59
2022-11-12T18:30:25.174Z,102166.22
2022-11-12T18:32:51.575Z,102162.16
2022-11-12T18:35:17.980Z,102171.09
2022-11-12T18:37:44.533Z,102168.81
2022-11-12T18:40:11.307Z,102162.78
2022-11-12T18:42:37.677Z,102163.56
2022-11-12T18:45:04.295Z,102162.03
2022-11-12T18:47:30.777Z,102163.13
2022-11-12T18:49:57.142Z,102156.75
2022-11-12T18:52:23.583Z,102157.19
2022-11-12T18:54:50.020Z,102150.31
2022-11-12T18:57:16.454Z,102143.13
2022-11-12T18:59:42.908Z,102143.88
2022-11-12T19:02:12.071Z,102142.66
2022-11-12T19:04:44.044Z,102150.56
2022-11-12T19:07:11.758Z,102140.66
2022-11-12T19:09:38.229Z,102148.72
2022-11-12T19:12:04.856Z,102145.56
2022-11-12T19:14:31.234Z,102141.56
2022-11-12T19:16:57.970Z,102143.28
2022-11-12T19:19:24.335Z,102141.22
2022-11-12T19:21:50.706Z,102135.91
2022-11-12T19:24:17.164Z,102136.94
2022-11-12T19:26:43.642Z,102140.50
2022-11-12T19:29:10.059Z,102138.81
2022-11-12T19:31:36.808Z,102145.72
2022-11-12T19:34:03.230Z,102142.34
2022-11-12T19:36:29.719Z,102140.09
2022-11-12T19:38:57.418Z,102137.63
2022-11-12T19:41:24.206Z,102140.97
2022-11-12T19:43:51.390Z,102139.00
2022-11-12T19:46:17.986Z,102148.44
2022-11-12T19:48:44.644Z,102143.47
2022-11-12T19:51:12.383Z,102141.13
2022-11-12T19:53:44.204Z,102135.13
2022-11-12T19:56:16.878Z,102142.91
2022-11-12T19:58:48.138Z,102140.84
2022-11-12T20:01:17.700Z,102142.72
2022-11-12T20:03:44.469Z,102132.22
2022-11-12T20:06:13.824Z,102149.16
2022-11-12T20:08:40.648Z,102137.28
2022-11-12T20:11:07.018Z,102136.91
2022-11-12T20:13:33.385Z,102136.75
2022-11-12T20:15:59.790Z,102139.34
2022-11-12T20:18:26.955Z,102139.41
2022-11-12T20:20:56.264Z,102137.03
2022-11-12T20:23:23.713Z,102129.75
2022-11-12T20:25:51.156Z,102129.81
2022-11-12T20:28:18.095Z,102132.38
2022-11-12T20:30:45.055Z,102122.22
2022-11-12T20:33:13.423Z,102128.47
2022-11-12T20:35:39.825Z,102125.31
2022-11-12T20:38:06.469Z,102125.09
2022-11-12T20:40:33.079Z,102121.75
2022-11-12T20:42:59.477Z,102112.09
2022-11-12T20:45:27.002Z,102112.84
2022-11-12T20:47:54.994Z,102116.59
2022-11-12T20:50:21.493Z,102116.16
2022-11-12T20:52:48.067Z,102111.53
2022-11-12T20:55:14.509Z,102111.84
2022-11-12T20:57:40.902Z,102110.13
2022-11-12T21:00:13.264Z,102111.13
2022-11-12T21:02:40.419Z,102123.44
2022-11-12T21:05:07.123Z,102113.22
2022-11-12T21:07:33.663Z,102117.03
2022-11-12T21:10:00.198Z,102119.78
2022-11-12T21:12:26.583Z,102104.47
2022-11-12T21:14:52.974Z,102109.03
2022-11-12T21:17:19.734Z,102103.41
2022-11-12T21:19:46.155Z,102097.16
2022-11-12T21:22:14.718Z,102095.34
2022-11-12T21:24:41.112Z,102094.69
2022-11-12T21:27:07.500Z,102095.94
2022-11-12T21:29:34.604Z,102096.53
2022-11-12T21:32:01.014Z,102101.25
2022-11-12T21:34:27.466Z,102097.34
2022-11-12T21:36:53.827Z,102096.44
2022-11-12T21:39:20.703Z,102089.34
2022-11-12T21:41:47.075Z,102086.28
2022-11-12T21:44:13.452Z,102082.22
2022-11-12T21:46:40.379Z,102089.13
2022-11-12T21:49:06.788Z,102092.03
2022-11-12T21:51:33.512Z,102086.88
2022-11-12T21:54:05.119Z,102083.44
2022-11-12T21:56:33.265Z,102083.63
2022-11-12T21:59:01.131Z,102081.13
2022-11-12T22:01:29.430Z,102090.78
2022-11-12T22:03:57.120Z,102080.97
2022-11-12T22:06:25.523Z,102077.66
2022-11-12T22:08:52.976Z,102085.53
2022-11-12T22:11:19.816Z,102080.38
2022-11-12T22:13:46.436Z,102082.97
2022-11-12T22:16:19.520Z,102079.75
2022-11-12T22:18:48.379Z,102072.91
2022-11-12T22:21:17.282Z,102067.09
2022-11-12T22:23:43.982Z,102072.50
2022-11-12T22:26:15.129Z,102068.72
2022-11-12T22:28:41.940Z,102073.59
2022-11-12T22:31:11.687Z,102085.31
2022-11-12T22:33:38.625Z,102066.91
2022-11-12T22:36:13.281Z,102060.72
2022-11-12T22:38:41.800Z,102065.88
2022-11-12T22:41:10.917Z,102061.81
2022-11-12T22:43:37.979Z,102063.63
2022-11-12T22:46:09.898Z,102070.34
2022-11-12T22:48:36.499Z,102065.22
2022-11-12T22:51:05.302Z,102058.97
2022-11-12T22:53:31.993Z,102056.06
2022-11-12T22:56:05.807Z,102053.75
2022-11-12T22:58:39.975Z,102050.03
2022-11-12T23:01:08.913Z,102051.97
2022-11-12T23:03:35.795Z,102047.38
2022-11-12T23:06:04.812Z,102050.44
2022-11-12T23:08:31.719Z,102045.63
2022-11-12T23:11:02.538Z,102046.34
2022-11-12T23:13:28.905Z,102044.59
2022-11-12T23:15:55.311Z,102046.25
2022-11-12T23:18:21.726Z,102042.47
2022-11-12T23:20:48.102Z,102038.94
2022-11-12T23:23:14.467Z,102036.56
2022-11-12T23:25:40.928Z,102036.78
2022-11-12T23:28:07.671Z,102043.72
2022-11-12T23:30:35.308Z,102038.00
2022-11-12T23:33:02.077Z,102028.59
2022-11-12T23:35:29.831Z,102027.84
2022-11-12T23:37:56.187Z,102031.25
2022-11-12T23:40:24.292Z,102034.47
2022-11-12T23:42:53.728Z,102032.44
2022-11-12T23:45:20.099Z,102023.53
2022-11-12T23:47:46.474Z,102023.78
2022-11-12T23:50:12.911Z,102025.69
2022-11-12T23:52:39.278Z,102019.78
2022-11-12T23:55:05.779Z,102022.81
2022-11-12T23:57:32.873Z,102026.50
2022-11-12T23:59:59.253Z,102027.38
